Taconite, MN

4:22 PM CDT on July 26, 2016 (GMT -0500)
Grand Rapids | | Change Station

Elev 1293 ft 47.24 °N, 93.49 °W | Updated 22 seconds ago

Clear
Clear
83.6 °F
Feels Like 87 °F
N
4.0
Wind Variable Wind from SW
Gusts 4.0 mph

Today
High -- | Low -- °F
--% Chance of Precip.
Yesterday
High -- | Low -- °F
Precip. -- in
Pressure 29.97 in
Visibility 10.0 miles
Clouds Clear
Heat Index 87 °F
Dew Point 69 °F
Humidity 62%
Rainfall 0.00 in
Snow Depth Not available.
5:45 AM 8:54 PM
Waning Gibbous, 51% visible
METAR KGPZ 262056Z AUTO VRB03KT 10SM CLR 27/19 A2999 RMK AO2 SLP149 T02670194 58005
Pressure 29.97 in
Visibility 10.0 miles
Clouds Clear
Heat Index 87 °F
Dew Point 69 °F
Humidity 62%
Rainfall 0.00 in
Snow Depth Not available.
5:45 AM 8:54 PM
Waning Gibbous, 51% visible
METAR KGPZ 262056Z AUTO VRB03KT 10SM CLR 27/19 A2999 RMK AO2 SLP149 T02670194 58005

10-Day Weather Forecast

Almanac

Astronomy

Jul. 26, 2016 Rise Set
Actual Time
Civil Twilight
Nautical Twilight
Astronomical Twilight
Moon
Length of Visible Light
Length of Day
Tomorrow will be .
, % of the Moon is Illuminated

Today's Extremes

State Highs State Lows

Community

WunderPhotos

Upload Photos

1,927,702 photos uploaded!

WunderBlog® & News

Nearby

Air Quality

  Air Quality AQ Index Pollutant
Not available.

Snow Depth

Station Depth Elevation

Earthquake Activity

City Distance Mag. Time & Date
Minimum magnitude displayed is 2.5.

Coastal Water Temperatures

Place Temperature

Stations

Nearby Weather Stations

Station Location Temp. Windchill Dew Point Humidity Wind Precip. Elev Updated Type
                   

Watches & Warnings

There are currently no watches in effect.